createdAt,value
2018-01-29T00:00:47.625Z,9.70
2018-01-29T00:03:15.363Z,9.70
2018-01-29T00:05:42.999Z,9.80
2018-01-29T00:08:10.629Z,9.80
2018-01-29T00:10:38.219Z,9.80
2018-01-29T00:13:05.829Z,9.80
2018-01-29T00:15:33.409Z,9.80
2018-01-29T00:18:01.780Z,9.80
2018-01-29T00:20:29.358Z,9.80
2018-01-29T00:22:57.037Z,9.90
2018-01-29T00:25:24.650Z,9.80
2018-01-29T00:27:52.232Z,9.80
2018-01-29T00:30:20.027Z,9.80
2018-01-29T00:32:47.791Z,9.80
2018-01-29T00:35:15.437Z,9.90
2018-01-29T00:37:43.109Z,9.80
2018-01-29T00:40:10.821Z,9.80
2018-01-29T00:42:38.416Z,9.80
2018-01-29T00:45:06.157Z,9.80
2018-01-29T00:47:33.814Z,9.80
2018-01-29T00:50:01.723Z,9.80
2018-01-29T00:52:30.055Z,9.80
2018-01-29T00:54:57.809Z,9.80
2018-01-29T00:57:26.770Z,9.80
2018-01-29T00:59:54.344Z,9.80
2018-01-29T01:02:21.951Z,9.70
2018-01-29T01:04:51.637Z,9.70
2018-01-29T01:07:19.295Z,9.80
2018-01-29T01:09:46.861Z,9.80
2018-01-29T01:12:14.542Z,9.70
2018-01-29T01:14:42.262Z,9.70
2018-01-29T01:17:09.866Z,9.80
2018-01-29T01:19:37.601Z,9.80
2018-01-29T01:22:05.211Z,9.80
2018-01-29T01:24:32.911Z,9.80
2018-01-29T01:27:00.511Z,9.80
2018-01-29T01:29:28.331Z,9.80
2018-01-29T01:31:55.942Z,9.80
2018-01-29T01:34:23.576Z,9.80
2018-01-29T01:36:51.143Z,9.80
2018-01-29T01:39:18.949Z,9.80
2018-01-29T01:41:46.512Z,9.80
2018-01-29T01:44:14.123Z,9.80
2018-01-29T01:46:41.691Z,9.80
2018-01-29T01:49:09.330Z,9.80
2018-01-29T01:51:36.957Z,9.80
2018-01-29T01:54:04.567Z,9.80
2018-01-29T01:56:32.198Z,9.80
2018-01-29T01:58:59.757Z,9.80
2018-01-29T02:01:27.475Z,9.80
2018-01-29T02:03:55.055Z,9.80
2018-01-29T02:06:22.620Z,9.80
2018-01-29T02:08:50.302Z,9.80
2018-01-29T02:11:18.644Z,9.80
2018-01-29T02:13:46.253Z,9.80
2018-01-29T02:16:14.642Z,9.80
2018-01-29T02:18:42.220Z,9.70
2018-01-29T02:21:10.796Z,9.80
2018-01-29T02:23:38.363Z,9.80
2018-01-29T02:26:05.974Z,9.80
2018-01-29T02:28:33.751Z,9.80
2018-01-29T02:31:01.429Z,9.80
2018-01-29T02:33:29.794Z,9.80
2018-01-29T02:35:58.126Z,9.80
2018-01-29T02:38:25.735Z,9.80
2018-01-29T02:40:53.300Z,9.90
2018-01-29T02:43:21.044Z,9.80
2018-01-29T02:45:48.615Z,9.80
2018-01-29T02:48:16.247Z,9.70
2018-01-29T02:50:43.813Z,9.60
2018-01-29T02:53:12.987Z,9.60
2018-01-29T02:55:40.614Z,9.50
2018-01-29T02:58:09.006Z,9.50
2018-01-29T03:00:36.569Z,9.40
2018-01-29T03:03:04.182Z,9.40
2018-01-29T03:05:31.825Z,9.30
2018-01-29T03:07:59.471Z,9.30
2018-01-29T03:10:27.041Z,9.30
2018-01-29T03:12:54.737Z,9.40
2018-01-29T03:15:22.429Z,9.40
2018-01-29T03:17:50.814Z,9.40
2018-01-29T03:20:18.385Z,9.30
2018-01-29T03:22:46.025Z,9.30
2018-01-29T03:25:14.350Z,9.20
2018-01-29T03:27:42.109Z,9.20
2018-01-29T03:30:09.817Z,9.10
2018-01-29T03:32:37.435Z,9.10
2018-01-29T03:35:04.994Z,9.10
2018-01-29T03:37:32.604Z,9.00
2018-01-29T03:40:00.981Z,9.00
2018-01-29T03:42:28.661Z,9.00
2018-01-29T03:44:57.050Z,9.10
2018-01-29T03:47:24.697Z,9.10
2018-01-29T03:49:52.316Z,9.10
2018-01-29T03:52:19.948Z,9.20
2018-01-29T03:54:47.557Z,9.20
2018-01-29T03:57:15.180Z,9.30
2018-01-29T03:59:42.743Z,9.30
2018-01-29T04:02:10.375Z,9.30
2018-01-29T04:04:37.954Z,9.30
2018-01-29T04:07:05.739Z,9.40
2018-01-29T04:09:33.417Z,9.40
2018-01-29T04:12:01.030Z,9.40
2018-01-29T04:14:29.347Z,9.30
2018-01-29T04:16:57.073Z,9.30
2018-01-29T04:19:25.527Z,9.30
2018-01-29T04:21:53.114Z,9.30
2018-01-29T04:24:20.825Z,9.30
2018-01-29T04:26:48.593Z,9.30
2018-01-29T04:29:16.266Z,9.30
2018-01-29T04:31:43.845Z,9.30
2018-01-29T04:34:11.465Z,9.40
2018-01-29T04:36:39.351Z,9.30
2018-01-29T04:39:08.112Z,9.40
2018-01-29T04:41:37.661Z,9.50
2018-01-29T04:44:05.264Z,9.40
2018-01-29T04:46:32.886Z,9.40
2018-01-29T04:49:00.798Z,9.40
2018-01-29T04:51:28.426Z,9.40
2018-01-29T04:53:56.182Z,9.40
2018-01-29T04:56:24.775Z,9.40
2018-01-29T04:58:53.191Z,9.40
2018-01-29T05:01:20.790Z,9.40
2018-01-29T05:03:48.347Z,9.40
2018-01-29T05:06:15.949Z,9.40
2018-01-29T05:08:43.521Z,9.40
2018-01-29T05:11:11.392Z,9.40
2018-01-29T05:13:38.961Z,9.40
2018-01-29T05:16:06.561Z,9.40
2018-01-29T05:18:34.213Z,9.50
2018-01-29T05:21:01.822Z,9.50
2018-01-29T05:23:30.218Z,9.50
2018-01-29T05:25:57.863Z,9.50
2018-01-29T05:28:25.726Z,9.50
2018-01-29T05:30:54.134Z,9.50
2018-01-29T05:33:22.079Z,9.40
2018-01-29T05:35:52.210Z,9.40
2018-01-29T05:38:27.853Z,9.50
2018-01-29T05:40:56.362Z,9.40
2018-01-29T05:43:24.038Z,9.40
2018-01-29T05:45:51.797Z,9.40
2018-01-29T05:48:19.613Z,9.40
2018-01-29T05:50:47.224Z,9.40
2018-01-29T05:53:14.801Z,9.40
2018-01-29T05:55:42.402Z,9.40
2018-01-29T05:58:10.092Z,9.40
2018-01-29T06:00:37.890Z,9.50
2018-01-29T06:03:05.753Z,9.50
2018-01-29T06:05:33.425Z,9.40
2018-01-29T06:08:01.061Z,9.50
2018-01-29T06:10:28.632Z,9.50
2018-01-29T06:12:56.367Z,9.50
2018-01-29T06:15:23.937Z,9.50
2018-01-29T06:17:51.589Z,9.60
2018-01-29T06:20:19.164Z,9.50
2018-01-29T06:22:46.824Z,9.60
2018-01-29T06:25:14.578Z,9.60
2018-01-29T06:27:42.136Z,9.50
2018-01-29T06:30:10.666Z,9.50
2018-01-29T06:32:38.303Z,9.50
2018-01-29T06:35:06.034Z,9.50
2018-01-29T06:37:33.734Z,9.50
2018-01-29T06:40:01.520Z,9.40
2018-01-29T06:42:29.175Z,9.50
2018-01-29T06:44:56.874Z,9.50
2018-01-29T06:47:24.679Z,9.50
2018-01-29T06:49:52.244Z,9.50
2018-01-29T06:52:20.611Z,9.50
2018-01-29T06:54:48.209Z,9.50
2018-01-29T06:57:15.811Z,9.50
2018-01-29T06:59:43.535Z,9.50
2018-01-29T07:02:11.111Z,9.50
2018-01-29T07:04:38.724Z,9.50
2018-01-29T07:07:06.370Z,9.50
2018-01-29T07:09:34.002Z,9.50
2018-01-29T07:12:01.624Z,9.40
2018-01-29T07:14:29.211Z,9.40
2018-01-29T07:16:56.862Z,9.40
2018-01-29T07:19:24.423Z,9.40
2018-01-29T07:21:52.138Z,9.40
2018-01-29T07:24:20.548Z,9.40
2018-01-29T07:26:48.253Z,9.40
2018-01-29T07:29:15.848Z,9.40
2018-01-29T07:31:43.426Z,9.40
2018-01-29T07:34:11.030Z,9.40
2018-01-29T07:36:38.615Z,9.40
2018-01-29T07:39:06.259Z,9.40
2018-01-29T07:41:33.826Z,9.40
2018-01-29T07:44:01.404Z,9.40
2018-01-29T07:46:29.916Z,9.40
2018-01-29T07:48:57.641Z,9.30
2018-01-29T07:51:25.529Z,9.30
2018-01-29T07:53:53.107Z,9.30
2018-01-29T07:56:20.827Z,9.30
2018-01-29T07:58:48.491Z,9.30
2018-01-29T08:01:16.123Z,9.30
2018-01-29T08:03:43.761Z,9.40
2018-01-29T08:06:11.355Z,9.40
2018-01-29T08:08:39.035Z,9.40
2018-01-29T08:11:06.817Z,9.40
2018-01-29T08:13:35.211Z,9.40
2018-01-29T08:16:03.677Z,9.50
2018-01-29T08:18:31.252Z,9.40
2018-01-29T08:20:58.855Z,9.50
2018-01-29T08:23:27.238Z,9.50
2018-01-29T08:25:54.805Z,9.40
2018-01-29T08:28:22.388Z,9.50
2018-01-29T08:30:50.018Z,9.50
2018-01-29T08:33:17.750Z,9.50
2018-01-29T08:35:46.248Z,9.50
2018-01-29T08:38:13.862Z,9.50
2018-01-29T08:40:41.609Z,9.50
2018-01-29T08:43:09.319Z,9.50
2018-01-29T08:45:37.698Z,9.50
2018-01-29T08:48:06.130Z,9.50
2018-01-29T08:50:33.810Z,9.50
2018-01-29T08:53:01.502Z,9.50
2018-01-29T08:55:29.896Z,9.50
2018-01-29T08:57:57.582Z,9.40
2018-01-29T09:00:25.159Z,9.40
2018-01-29T09:02:52.795Z,9.40
2018-01-29T09:05:20.431Z,9.40
2018-01-29T09:07:48.878Z,9.30
2018-01-29T09:10:16.547Z,9.30
2018-01-29T09:12:44.150Z,9.20
2018-01-29T09:15:12.025Z,9.20
2018-01-29T09:17:39.614Z,9.20
2018-01-29T09:20:07.805Z,9.10
2018-01-29T09:22:35.683Z,9.10
2018-01-29T09:25:03.378Z,9.00
2018-01-29T09:27:31.755Z,8.90
2018-01-29T09:29:59.409Z,8.90
2018-01-29T09:32:27.060Z,8.80
2018-01-29T09:34:55.458Z,8.80
2018-01-29T09:37:23.838Z,8.80
2018-01-29T09:39:52.186Z,8.80
2018-01-29T09:42:19.869Z,8.80
2018-01-29T09:44:47.575Z,8.70
2018-01-29T09:47:15.220Z,8.70
2018-01-29T09:49:42.968Z,8.60
2018-01-29T09:52:10.624Z,8.60
2018-01-29T09:54:38.559Z,8.60
2018-01-29T09:57:06.253Z,8.60
2018-01-29T09:59:34.656Z,8.60
2018-01-29T10:02:02.334Z,8.60
2018-01-29T10:04:29.994Z,8.60
2018-01-29T10:06:57.562Z,8.60
2018-01-29T10:09:27.021Z,8.60
2018-01-29T10:11:55.361Z,8.60
2018-01-29T10:14:22.960Z,8.60
2018-01-29T10:16:50.530Z,8.60
2018-01-29T10:19:18.901Z,8.70
2018-01-29T10:21:47.229Z,8.70
2018-01-29T10:24:14.878Z,8.70
2018-01-29T10:26:42.448Z,8.70
2018-01-29T10:29:10.038Z,8.60
2018-01-29T10:31:37.646Z,8.60
2018-01-29T10:34:05.213Z,8.60
2018-01-29T10:36:32.821Z,8.60
2018-01-29T10:39:00.377Z,8.60
2018-01-29T10:41:30.988Z,8.60
2018-01-29T10:43:58.551Z,8.60
2018-01-29T10:46:26.163Z,8.60
2018-01-29T10:48:54.499Z,8.60
2018-01-29T11:03:06.360Z,8.50
2018-01-29T11:05:33.972Z,8.50
2018-01-29T11:08:01.557Z,8.50
2018-01-29T11:10:29.946Z,8.50
2018-01-29T11:12:57.511Z,8.50
2018-01-29T11:15:25.090Z,8.50
2018-01-29T11:17:52.695Z,8.50
2018-01-29T11:20:20.559Z,8.50
2018-01-29T11:22:48.255Z,8.50
2018-01-29T11:25:15.832Z,8.50
2018-01-29T11:27:44.558Z,8.50
2018-01-29T11:30:12.115Z,8.50
2018-01-29T11:32:39.731Z,8.50
2018-01-29T11:35:07.320Z,8.50
2018-01-29T11:37:34.927Z,8.50
2018-01-29T11:40:05.136Z,8.50
2018-01-29T11:42:32.706Z,8.50
2018-01-29T11:45:00.321Z,8.50
2018-01-29T11:47:27.950Z,8.50
2018-01-29T11:49:56.269Z,8.50
2018-01-29T11:52:23.880Z,8.50
2018-01-29T11:54:52.210Z,8.50
2018-01-29T11:57:19.821Z,8.50
2018-01-29T11:59:47.389Z,8.50
2018-01-29T12:02:15.211Z,8.50
2018-01-29T12:04:43.598Z,8.50
2018-01-29T12:07:11.181Z,8.50
2018-01-29T12:09:38.787Z,8.50
2018-01-29T12:12:08.032Z,8.50
2018-01-29T12:14:35.647Z,8.40
2018-01-29T12:17:03.218Z,8.40
2018-01-29T12:19:31.735Z,8.40
2018-01-29T12:21:59.479Z,8.40
2018-01-29T12:24:27.031Z,8.40
2018-01-29T12:26:54.633Z,8.40
2018-01-29T12:29:22.218Z,8.40
2018-01-29T12:31:49.817Z,8.40
2018-01-29T12:34:17.378Z,8.40
2018-01-29T12:36:45.005Z,8.40
2018-01-29T12:39:12.564Z,8.40
2018-01-29T12:41:40.172Z,8.40
2018-01-29T12:44:07.775Z,8.40
2018-01-29T12:46:36.098Z,8.40
2018-01-29T12:49:03.663Z,8.40
2018-01-29T12:51:31.273Z,8.40
2018-01-29T12:53:58.830Z,8.40
2018-01-29T12:56:27.158Z,8.30
2018-01-29T12:58:54.779Z,8.40
2018-01-29T13:01:22.339Z,8.30
2018-01-29T13:03:49.923Z,8.30
2018-01-29T13:06:17.524Z,8.40
2018-01-29T13:08:45.090Z,8.40
2018-01-29T13:11:12.653Z,8.30
2018-01-29T13:13:40.297Z,8.30
2018-01-29T13:16:07.854Z,8.30
2018-01-29T13:18:35.426Z,8.30
2018-01-29T13:21:03.022Z,8.40
2018-01-29T13:23:30.591Z,8.30
2018-01-29T13:25:58.290Z,8.30
2018-01-29T13:28:25.850Z,8.30
2018-01-29T13:30:53.462Z,8.30
2018-01-29T13:33:21.043Z,8.30
2018-01-29T13:35:48.616Z,8.30
2018-01-29T13:38:16.246Z,8.30
2018-01-29T13:40:44.576Z,8.30
2018-01-29T13:43:12.155Z,8.20
2018-01-29T13:45:39.754Z,8.20
2018-01-29T13:48:07.319Z,8.30
2018-01-29T13:50:34.926Z,8.20
2018-01-29T13:53:02.494Z,8.20
2018-01-29T13:55:30.113Z,8.20
2018-01-29T13:57:57.675Z,8.20
2018-01-29T14:00:25.234Z,8.20
2018-01-29T14:02:52.878Z,8.20
2018-01-29T14:05:21.259Z,8.20
2018-01-29T14:07:49.623Z,8.20
2018-01-29T14:10:17.184Z,8.20
2018-01-29T14:12:45.558Z,8.20
2018-01-29T14:15:13.933Z,8.20
2018-01-29T14:17:41.500Z,8.20
2018-01-29T14:20:09.105Z,8.20
2018-01-29T14:22:36.731Z,8.20
2018-01-29T14:25:04.350Z,8.20
2018-01-29T14:27:31.966Z,8.20
2018-01-29T14:29:59.528Z,8.20
2018-01-29T14:32:27.090Z,8.20
2018-01-29T14:34:54.710Z,8.20
2018-01-29T14:37:22.318Z,8.20
2018-01-29T14:39:49.879Z,8.20
2018-01-29T14:42:17.448Z,8.20
2018-01-29T14:44:45.097Z,8.20
2018-01-29T14:47:12.657Z,8.20
2018-01-29T14:49:40.240Z,8.20
2018-01-29T14:52:07.842Z,8.20
2018-01-29T14:54:35.405Z,8.20
2018-01-29T14:57:02.974Z,8.20
2018-01-29T14:59:31.369Z,8.20
2018-01-29T15:01:58.967Z,8.10
2018-01-29T15:04:26.566Z,8.20
2018-01-29T15:06:54.205Z,8.10
2018-01-29T15:09:21.779Z,8.10
2018-01-29T15:11:49.408Z,8.10
2018-01-29T15:14:17.010Z,8.10
2018-01-29T15:16:44.578Z,8.10
2018-01-29T15:19:12.195Z,8.10
2018-01-29T15:21:39.751Z,8.10
2018-01-29T15:24:07.319Z,8.10
2018-01-29T15:26:34.934Z,8.10
2018-01-29T15:29:03.212Z,8.00
2018-01-29T15:31:31.539Z,8.00
2018-01-29T15:33:59.141Z,8.00
2018-01-29T15:36:26.752Z,8.00
2018-01-29T15:38:54.317Z,8.00
2018-01-29T15:41:21.874Z,8.00
2018-01-29T15:43:49.465Z,8.00
2018-01-29T15:46:17.027Z,7.90
2018-01-29T15:48:44.634Z,7.80
2018-01-29T15:51:12.241Z,7.70
2018-01-29T15:53:39.817Z,7.70
2018-01-29T15:56:07.422Z,7.50
2018-01-29T15:58:35.033Z,7.50
2018-01-29T16:01:02.633Z,7.40
2018-01-29T16:03:31.007Z,7.30
2018-01-29T16:05:59.335Z,7.30
2018-01-29T16:08:26.908Z,7.30
2018-01-29T16:10:54.509Z,7.30
2018-01-29T16:13:22.836Z,7.30
2018-01-29T16:15:51.231Z,7.30
2018-01-29T16:18:18.808Z,7.30
2018-01-29T16:20:46.420Z,7.20
2018-01-29T16:23:13.977Z,7.30
2018-01-29T16:25:41.579Z,7.30
2018-01-29T16:28:09.150Z,7.20
2018-01-29T16:30:36.761Z,7.20
2018-01-29T16:33:04.328Z,7.20
2018-01-29T16:35:31.905Z,7.20
2018-01-29T16:37:59.511Z,7.10
2018-01-29T16:40:27.122Z,7.10
2018-01-29T16:42:54.687Z,7.00
2018-01-29T16:45:22.261Z,6.90
2018-01-29T16:47:49.867Z,6.90
2018-01-29T16:50:17.482Z,6.80
2018-01-29T16:52:45.829Z,6.90
2018-01-29T16:55:13.394Z,6.80
2018-01-29T16:57:41.016Z,6.80
2018-01-29T17:00:08.586Z,6.80
2018-01-29T17:02:36.914Z,6.80
2018-01-29T17:05:04.513Z,6.80
2018-01-29T17:07:35.902Z,6.70
2018-01-29T17:10:03.463Z,6.70
2018-01-29T17:12:31.070Z,6.70
2018-01-29T17:14:58.706Z,6.70
2018-01-29T17:17:26.288Z,6.70
2018-01-29T17:19:53.898Z,6.70
2018-01-29T17:22:21.505Z,6.70
2018-01-29T17:24:49.076Z,6.70
2018-01-29T17:27:16.645Z,6.70
2018-01-29T17:29:44.257Z,6.60
2018-01-29T17:32:11.836Z,6.60
2018-01-29T17:34:39.410Z,6.60
2018-01-29T17:37:07.057Z,6.60
2018-01-29T17:39:34.613Z,6.60
2018-01-29T17:42:02.179Z,6.60
2018-01-29T17:44:29.797Z,6.50
2018-01-29T17:46:57.360Z,6.50
2018-01-29T17:49:24.930Z,6.50
2018-01-29T17:51:52.535Z,6.40
2018-01-29T17:54:20.110Z,6.40
2018-01-29T17:56:47.714Z,6.40
2018-01-29T17:59:15.316Z,6.30
2018-01-29T18:01:42.872Z,6.30
2018-01-29T18:04:10.519Z,6.30
2018-01-29T18:06:38.109Z,6.40
2018-01-29T18:09:06.120Z,6.50
2018-01-29T18:11:33.679Z,6.60
2018-01-29T18:14:01.296Z,6.60
2018-01-29T18:16:28.882Z,6.60
2018-01-29T18:18:56.484Z,6.60
2018-01-29T18:21:24.102Z,6.60
2018-01-29T18:23:51.686Z,6.60
2018-01-29T18:26:19.292Z,6.60
2018-01-29T18:28:46.943Z,6.50
2018-01-29T18:31:14.552Z,6.50
2018-01-29T18:33:42.216Z,6.50
2018-01-29T18:36:10.659Z,6.40
2018-01-29T18:38:38.440Z,6.40
2018-01-29T18:41:06.012Z,6.40
2018-01-29T18:43:33.627Z,6.40
2018-01-29T18:46:01.247Z,6.40
2018-01-29T18:48:28.865Z,6.50
2018-01-29T18:50:56.484Z,6.50
2018-01-29T18:53:24.054Z,6.50
2018-01-29T18:55:51.651Z,6.50
2018-01-29T18:58:19.259Z,6.50
2018-01-29T19:00:47.647Z,6.50
2018-01-29T19:03:15.206Z,6.50
2018-01-29T19:05:42.818Z,6.50
2018-01-29T19:08:10.390Z,6.50
2018-01-29T19:10:37.992Z,6.50
2018-01-29T19:13:05.568Z,6.50
2018-01-29T19:15:33.189Z,6.50
2018-01-29T19:18:00.775Z,6.50
2018-01-29T19:20:28.578Z,6.40
2018-01-29T19:22:56.154Z,6.40
2018-01-29T19:25:23.720Z,6.30
2018-01-29T19:27:51.328Z,6.20
2018-01-29T19:30:18.940Z,6.20
2018-01-29T19:32:46.554Z,6.20
2018-01-29T19:35:14.167Z,6.10
2018-01-29T19:37:41.865Z,6.10
2018-01-29T19:40:09.448Z,6.00
2018-01-29T19:42:37.131Z,6.00
2018-01-29T19:45:04.759Z,5.90
2018-01-29T19:47:32.586Z,5.80
2018-01-29T19:50:00.222Z,5.80
2018-01-29T19:52:27.804Z,5.70
2018-01-29T19:54:55.618Z,5.70
2018-01-29T19:57:23.225Z,5.60
2018-01-29T19:59:50.936Z,5.60
2018-01-29T20:02:18.549Z,5.60
2018-01-29T20:04:46.179Z,5.50
2018-01-29T20:07:13.826Z,5.50
2018-01-29T20:09:41.391Z,5.50
2018-01-29T20:12:09.046Z,5.50
2018-01-29T20:14:36.686Z,5.50
2018-01-29T20:17:04.768Z,5.40
2018-01-29T20:19:32.502Z,5.40
2018-01-29T20:22:00.135Z,5.40
2018-01-29T20:24:27.845Z,5.40
2018-01-29T20:26:55.556Z,5.40
2018-01-29T20:29:23.187Z,5.30
2018-01-29T20:31:52.761Z,5.20
2018-01-29T20:34:20.374Z,5.20
2018-01-29T20:36:48.001Z,5.30
2018-01-29T20:39:16.419Z,5.40
2018-01-29T20:41:44.079Z,5.40
2018-01-29T20:44:11.659Z,5.40
2018-01-29T20:46:39.293Z,5.50
2018-01-29T20:49:06.890Z,5.50
2018-01-29T20:51:34.472Z,5.40
2018-01-29T20:54:02.129Z,5.40
2018-01-29T20:56:29.841Z,5.40
2018-01-29T20:58:57.500Z,5.40
2018-01-29T21:01:25.325Z,5.30
2018-01-29T21:03:52.932Z,5.20
2018-01-29T21:06:20.582Z,5.30
2018-01-29T21:08:48.918Z,5.10
2018-01-29T21:11:16.578Z,5.10
2018-01-29T21:13:44.236Z,5.10
2018-01-29T21:16:11.849Z,5.00
2018-01-29T21:18:39.513Z,5.00
2018-01-29T21:21:07.131Z,5.00
2018-01-29T21:23:34.820Z,5.00
2018-01-29T21:26:02.450Z,5.00
2018-01-29T21:28:30.026Z,5.10
2018-01-29T21:30:58.359Z,5.00
2018-01-29T21:33:25.990Z,5.10
2018-01-29T21:35:54.419Z,5.10
2018-01-29T21:38:22.907Z,5.10
2018-01-29T21:40:50.490Z,5.20
2018-01-29T21:43:18.096Z,5.10
2018-01-29T21:45:45.734Z,5.10
2018-01-29T21:48:14.080Z,5.00
2018-01-29T21:50:41.678Z,4.90
2018-01-29T21:53:09.288Z,4.90
2018-01-29T21:55:36.930Z,4.80
2018-01-29T21:58:04.630Z,4.80
2018-01-29T22:00:33.042Z,4.70
2018-01-29T22:03:01.337Z,4.70
2018-01-29T22:05:28.949Z,4.70
2018-01-29T22:07:56.544Z,4.70
2018-01-29T22:10:25.412Z,4.70
2018-01-29T22:12:53.027Z,4.70
2018-01-29T22:15:20.687Z,4.70
2018-01-29T22:17:48.426Z,4.70
2018-01-29T22:20:16.206Z,4.70
2018-01-29T22:22:44.599Z,4.70
2018-01-29T22:25:12.452Z,4.70
2018-01-29T22:27:41.865Z,4.70
2018-01-29T22:30:11.177Z,4.70
2018-01-29T22:32:38.779Z,4.70
2018-01-29T22:35:06.948Z,4.60
2018-01-29T22:37:36.534Z,4.60
2018-01-29T22:40:04.907Z,4.50
2018-01-29T22:42:32.472Z,4.60
2018-01-29T22:45:00.092Z,4.50
2018-01-29T22:47:29.271Z,4.50
2018-01-29T22:49:56.894Z,4.50
2018-01-29T22:52:25.550Z,4.50
2018-01-29T22:54:53.241Z,4.40
2018-01-29T22:57:21.526Z,4.40
2018-01-29T22:59:49.184Z,4.40
2018-01-29T23:02:16.820Z,4.40
2018-01-29T23:04:44.749Z,4.40
2018-01-29T23:07:12.749Z,4.40
2018-01-29T23:09:40.394Z,4.40
2018-01-29T23:12:08.019Z,4.30
2018-01-29T23:14:35.691Z,4.40
2018-01-29T23:17:03.313Z,4.40
2018-01-29T23:19:30.889Z,4.40
2018-01-29T23:21:58.456Z,4.50
2018-01-29T23:24:26.088Z,4.40
2018-01-29T23:26:54.224Z,4.40
2018-01-29T23:29:21.821Z,4.40
2018-01-29T23:31:50.324Z,4.40
2018-01-29T23:34:18.216Z,4.30
2018-01-29T23:36:46.663Z,4.40
2018-01-29T23:39:15.355Z,4.40
2018-01-29T23:41:43.222Z,4.30
2018-01-29T23:44:10.848Z,4.30
2018-01-29T23:46:38.421Z,4.20
2018-01-29T23:49:06.876Z,4.10
2018-01-29T23:51:34.522Z,4.10
2018-01-29T23:54:03.307Z,4.10
2018-01-29T23:56:31.162Z,4.00
2018-01-29T23:58:58.908Z,4.00
